sensor_id;sensor_type;location;lat;lon;timestamp;temperature;humidity
24448;DHT22;13348;50.984;5.822;2024-03-17T00:01:10;6.40;99.90
24448;DHT22;13348;50.984;5.822;2024-03-17T00:03:37;6.40;99.90
24448;DHT22;13348;50.984;5.822;2024-03-17T00:06:04;6.30;99.90
24448;DHT22;13348;50.984;5.822;2024-03-17T00:08:30;6.30;99.90
24448;DHT22;13348;50.984;5.822;2024-03-17T00:10:56;6.30;99.90
24448;DHT22;13348;50.984;5.822;2024-03-17T00:13:22;6.30;99.90
24448;DHT22;13348;50.984;5.822;2024-03-17T00:15:49;6.20;99.90
24448;DHT22;13348;50.984;5.822;2024-03-17T00:18:15;6.30;99.90
24448;DHT22;13348;50.984;5.822;2024-03-17T00:20:44;6.20;99.90
24448;DHT22;13348;50.984;5.822;2024-03-17T00:23:10;6.20;99.90
24448;DHT22;13348;50.984;5.822;2024-03-17T00:25:37;6.10;99.90
24448;DHT22;13348;50.984;5.822;2024-03-17T00:28:03;6.10;99.90
24448;DHT22;13348;50.984;5.822;2024-03-17T00:30:30;6.00;99.90
24448;DHT22;13348;50.984;5.822;2024-03-17T00:32:56;6.00;99.90
24448;DHT22;13348;50.984;5.822;2024-03-17T00:35:24;5.90;99.90
24448;DHT22;13348;50.984;5.822;2024-03-17T00:37:52;5.90;99.90
24448;DHT22;13348;50.984;5.822;2024-03-17T00:40:20;5.90;99.90
24448;DHT22;13348;50.984;5.822;2024-03-17T00:42:46;5.80;99.90
24448;DHT22;13348;50.984;5.822;2024-03-17T00:45:13;5.80;99.90
24448;DHT22;13348;50.984;5.822;2024-03-17T00:47:39;5.80;99.90
24448;DHT22;13348;50.984;5.822;2024-03-17T00:50:06;5.80;99.90
24448;DHT22;13348;50.984;5.822;2024-03-17T00:52:33;5.70;99.90
24448;DHT22;13348;50.984;5.822;2024-03-17T00:55:01;5.70;99.90
24448;DHT22;13348;50.984;5.822;2024-03-17T00:57:27;5.70;99.90
24448;DHT22;13348;50.984;5.822;2024-03-17T00:59:54;5.70;99.90
24448;DHT22;13348;50.984;5.822;2024-03-17T01:02:20;5.70;99.90
24448;DHT22;13348;50.984;5.822;2024-03-17T01:04:47;5.70;99.90
24448;DHT22;13348;50.984;5.822;2024-03-17T01:07:13;5.70;99.90
24448;DHT22;13348;50.984;5.822;2024-03-17T01:09:40;5.70;99.90
24448;DHT22;13348;50.984;5.822;2024-03-17T01:12:07;5.70;99.90
24448;DHT22;13348;50.984;5.822;2024-03-17T01:14:34;5.60;99.90
24448;DHT22;13348;50.984;5.822;2024-03-17T01:17:00;5.60;99.90
24448;DHT22;13348;50.984;5.822;2024-03-17T01:19:30;5.60;99.90
24448;DHT22;13348;50.984;5.822;2024-03-17T01:21:56;5.60;99.90
24448;DHT22;13348;50.984;5.822;2024-03-17T01:24:23;5.50;99.90
24448;DHT22;13348;50.984;5.822;2024-03-17T01:26:50;5.50;99.90
24448;DHT22;13348;50.984;5.822;2024-03-17T01:29:20;5.50;99.90
24448;DHT22;13348;50.984;5.822;2024-03-17T01:31:45;5.50;99.90
24448;DHT22;13348;50.984;5.822;2024-03-17T01:34:12;5.50;99.90
24448;DHT22;13348;50.984;5.822;2024-03-17T01:36:38;5.50;99.90
24448;DHT22;13348;50.984;5.822;2024-03-17T01:39:05;5.50;99.90
24448;DHT22;13348;50.984;5.822;2024-03-17T01:41:31;5.50;99.90
24448;DHT22;13348;50.984;5.822;2024-03-17T01:43:58;5.50;99.90
24448;DHT22;13348;50.984;5.822;2024-03-17T01:46:25;5.50;99.90
24448;DHT22;13348;50.984;5.822;2024-03-17T01:48:53;5.50;99.90
24448;DHT22;13348;50.984;5.822;2024-03-17T01:51:19;5.40;99.90
24448;DHT22;13348;50.984;5.822;2024-03-17T01:53:46;5.50;99.90
24448;DHT22;13348;50.984;5.822;2024-03-17T01:56:12;5.60;99.90
24448;DHT22;13348;50.984;5.822;2024-03-17T01:58:40;5.60;99.90
24448;DHT22;13348;50.984;5.822;2024-03-17T02:01:08;5.70;99.90
24448;DHT22;13348;50.984;5.822;2024-03-17T02:03:36;5.70;99.90
24448;DHT22;13348;50.984;5.822;2024-03-17T02:06:02;5.70;99.90
24448;DHT22;13348;50.984;5.822;2024-03-17T02:08:38;5.70;99.90
24448;DHT22;13348;50.984;5.822;2024-03-17T02:11:12;5.70;99.90
24448;DHT22;13348;50.984;5.822;2024-03-17T02:13:49;5.80;99.90
24448;DHT22;13348;50.984;5.822;2024-03-17T02:16:18;5.80;99.90
24448;DHT22;13348;50.984;5.822;2024-03-17T02:18:47;5.80;99.90
24448;DHT22;13348;50.984;5.822;2024-03-17T02:21:13;5.90;99.90
24448;DHT22;13348;50.984;5.822;2024-03-17T02:23:42;5.90;99.90
24448;DHT22;13348;50.984;5.822;2024-03-17T02:26:07;5.90;99.90
24448;DHT22;13348;50.984;5.822;2024-03-17T02:28:38;5.90;99.90
24448;DHT22;13348;50.984;5.822;2024-03-17T02:31:04;6.00;99.90
24448;DHT22;13348;50.984;5.822;2024-03-17T02:33:31;6.00;99.90
24448;DHT22;13348;50.984;5.822;2024-03-17T02:35:57;6.00;99.90
24448;DHT22;13348;50.984;5.822;2024-03-17T02:38:25;6.00;99.90
24448;DHT22;13348;50.984;5.822;2024-03-17T02:41:07;5.90;99.90
24448;DHT22;13348;50.984;5.822;2024-03-17T02:43:34;5.80;99.90
24448;DHT22;13348;50.984;5.822;2024-03-17T02:46:01;5.80;99.90
24448;DHT22;13348;50.984;5.822;2024-03-17T02:48:30;5.70;99.90
24448;DHT22;13348;50.984;5.822;2024-03-17T02:50:57;5.70;99.90
24448;DHT22;13348;50.984;5.822;2024-03-17T02:53:24;5.70;99.90
24448;DHT22;13348;50.984;5.822;2024-03-17T02:55:51;5.80;99.90
24448;DHT22;13348;50.984;5.822;2024-03-17T02:58:19;5.80;99.90
24448;DHT22;13348;50.984;5.822;2024-03-17T03:00:46;5.80;99.90
24448;DHT22;13348;50.984;5.822;2024-03-17T03:03:13;5.80;99.90
24448;DHT22;13348;50.984;5.822;2024-03-17T03:05:40;5.80;99.90
24448;DHT22;13348;50.984;5.822;2024-03-17T03:08:07;5.90;99.90
24448;DHT22;13348;50.984;5.822;2024-03-17T03:10:34;5.90;99.90
24448;DHT22;13348;50.984;5.822;2024-03-17T03:13:02;6.00;99.90
24448;DHT22;13348;50.984;5.822;2024-03-17T03:15:31;5.90;99.90
24448;DHT22;13348;50.984;5.822;2024-03-17T03:17:58;6.00;99.90
24448;DHT22;13348;50.984;5.822;2024-03-17T03:20:25;6.00;99.90
24448;DHT22;13348;50.984;5.822;2024-03-17T03:22:53;6.00;99.90
24448;DHT22;13348;50.984;5.822;2024-03-17T03:25:20;6.00;99.90
24448;DHT22;13348;50.984;5.822;2024-03-17T03:27:47;6.00;99.90
24448;DHT22;13348;50.984;5.822;2024-03-17T03:30:14;6.00;99.90
24448;DHT22;13348;50.984;5.822;2024-03-17T03:32:43;6.10;99.90
24448;DHT22;13348;50.984;5.822;2024-03-17T03:35:10;6.10;99.90
24448;DHT22;13348;50.984;5.822;2024-03-17T03:37:38;6.10;99.90
24448;DHT22;13348;50.984;5.822;2024-03-17T03:40:05;6.20;99.90
24448;DHT22;13348;50.984;5.822;2024-03-17T03:42:41;6.20;99.90
24448;DHT22;13348;50.984;5.822;2024-03-17T03:45:08;6.20;99.90
24448;DHT22;13348;50.984;5.822;2024-03-17T03:47:38;6.20;99.90
24448;DHT22;13348;50.984;5.822;2024-03-17T03:50:07;6.30;99.90
24448;DHT22;13348;50.984;5.822;2024-03-17T03:52:35;6.30;99.90
24448;DHT22;13348;50.984;5.822;2024-03-17T03:55:02;6.20;99.90
24448;DHT22;13348;50.984;5.822;2024-03-17T03:57:31;6.30;99.90
24448;DHT22;13348;50.984;5.822;2024-03-17T03:59:59;6.30;99.90
24448;DHT22;13348;50.984;5.822;2024-03-17T04:02:26;6.30;99.90
24448;DHT22;13348;50.984;5.822;2024-03-17T04:04:56;6.30;99.90
24448;DHT22;13348;50.984;5.822;2024-03-17T04:07:25;6.30;99.90
24448;DHT22;13348;50.984;5.822;2024-03-17T04:09:52;6.30;99.90
24448;DHT22;13348;50.984;5.822;2024-03-17T04:12:20;6.30;99.90
24448;DHT22;13348;50.984;5.822;2024-03-17T04:14:47;6.20;99.90
24448;DHT22;13348;50.984;5.822;2024-03-17T04:17:18;6.20;99.90
24448;DHT22;13348;50.984;5.822;2024-03-17T04:19:46;6.20;99.90
24448;DHT22;13348;50.984;5.822;2024-03-17T04:22:14;6.10;99.90
24448;DHT22;13348;50.984;5.822;2024-03-17T04:24:43;6.10;99.90
24448;DHT22;13348;50.984;5.822;2024-03-17T04:27:10;6.00;99.90
24448;DHT22;13348;50.984;5.822;2024-03-17T04:29:37;5.90;99.90
24448;DHT22;13348;50.984;5.822;2024-03-17T04:32:04;5.80;99.90
24448;DHT22;13348;50.984;5.822;2024-03-17T04:34:31;5.80;99.90
24448;DHT22;13348;50.984;5.822;2024-03-17T04:36:58;5.80;99.90
24448;DHT22;13348;50.984;5.822;2024-03-17T04:39:25;5.70;99.90
24448;DHT22;13348;50.984;5.822;2024-03-17T04:41:53;5.70;99.90
24448;DHT22;13348;50.984;5.822;2024-03-17T04:44:20;5.80;99.90
24448;DHT22;13348;50.984;5.822;2024-03-17T04:46:48;5.70;99.90
24448;DHT22;13348;50.984;5.822;2024-03-17T04:49:15;5.70;99.90
24448;DHT22;13348;50.984;5.822;2024-03-17T04:51:42;5.80;99.90
24448;DHT22;13348;50.984;5.822;2024-03-17T04:54:10;5.90;99.90
24448;DHT22;13348;50.984;5.822;2024-03-17T04:56:37;5.90;99.90
24448;DHT22;13348;50.984;5.822;2024-03-17T04:59:05;6.00;99.90
24448;DHT22;13348;50.984;5.822;2024-03-17T05:01:32;6.00;99.90
24448;DHT22;13348;50.984;5.822;2024-03-17T05:04:01;6.00;99.90
24448;DHT22;13348;50.984;5.822;2024-03-17T05:06:29;6.10;99.90
24448;DHT22;13348;50.984;5.822;2024-03-17T05:08:56;6.10;99.90
24448;DHT22;13348;50.984;5.822;2024-03-17T05:11:23;6.10;99.90
24448;DHT22;13348;50.984;5.822;2024-03-17T05:13:50;6.10;99.90
24448;DHT22;13348;50.984;5.822;2024-03-17T05:16:19;6.20;99.90
24448;DHT22;13348;50.984;5.822;2024-03-17T05:18:48;6.30;99.90
24448;DHT22;13348;50.984;5.822;2024-03-17T05:21:15;6.30;99.90
24448;DHT22;13348;50.984;5.822;2024-03-17T05:23:42;6.30;99.90
24448;DHT22;13348;50.984;5.822;2024-03-17T05:26:09;6.30;99.90
24448;DHT22;13348;50.984;5.822;2024-03-17T05:28:36;6.40;99.90
24448;DHT22;13348;50.984;5.822;2024-03-17T05:31:03;6.50;99.90
24448;DHT22;13348;50.984;5.822;2024-03-17T05:33:32;6.50;99.90
24448;DHT22;13348;50.984;5.822;2024-03-17T05:35:59;6.60;99.90
24448;DHT22;13348;50.984;5.822;2024-03-17T05:38:28;6.60;99.90
24448;DHT22;13348;50.984;5.822;2024-03-17T05:40:55;6.60;99.90
24448;DHT22;13348;50.984;5.822;2024-03-17T05:43:22;6.60;99.90
24448;DHT22;13348;50.984;5.822;2024-03-17T05:45:50;6.70;99.90
24448;DHT22;13348;50.984;5.822;2024-03-17T05:48:16;6.70;99.90
24448;DHT22;13348;50.984;5.822;2024-03-17T05:50:45;6.80;99.90
24448;DHT22;13348;50.984;5.822;2024-03-17T05:53:12;6.80;99.90
24448;DHT22;13348;50.984;5.822;2024-03-17T05:55:39;6.90;99.90
24448;DHT22;13348;50.984;5.822;2024-03-17T05:58:08;6.90;99.90
24448;DHT22;13348;50.984;5.822;2024-03-17T06:00:35;6.90;99.90
24448;DHT22;13348;50.984;5.822;2024-03-17T06:03:02;6.90;99.90
24448;DHT22;13348;50.984;5.822;2024-03-17T06:05:31;6.90;99.90
24448;DHT22;13348;50.984;5.822;2024-03-17T06:07:59;6.90;99.90
24448;DHT22;13348;50.984;5.822;2024-03-17T06:10:27;6.90;99.90
24448;DHT22;13348;50.984;5.822;2024-03-17T06:12:55;6.90;99.90
24448;DHT22;13348;50.984;5.822;2024-03-17T06:15:22;7.00;99.90
24448;DHT22;13348;50.984;5.822;2024-03-17T06:17:50;7.00;99.90
24448;DHT22;13348;50.984;5.822;2024-03-17T06:20:18;7.00;99.90
24448;DHT22;13348;50.984;5.822;2024-03-17T06:22:45;7.00;99.90
24448;DHT22;13348;50.984;5.822;2024-03-17T06:25:13;7.00;99.90
24448;DHT22;13348;50.984;5.822;2024-03-17T06:27:40;7.00;99.90
24448;DHT22;13348;50.984;5.822;2024-03-17T06:30:10;7.00;99.90
24448;DHT22;13348;50.984;5.822;2024-03-17T06:32:39;7.00;99.90
24448;DHT22;13348;50.984;5.822;2024-03-17T06:35:06;7.00;99.90
24448;DHT22;13348;50.984;5.822;2024-03-17T06:37:33;7.10;99.90
24448;DHT22;13348;50.984;5.822;2024-03-17T06:40:00;7.20;99.90
24448;DHT22;13348;50.984;5.822;2024-03-17T06:42:30;7.40;99.90
24448;DHT22;13348;50.984;5.822;2024-03-17T06:44:57;7.50;99.90
24448;DHT22;13348;50.984;5.822;2024-03-17T06:47:24;7.60;99.90
24448;DHT22;13348;50.984;5.822;2024-03-17T06:49:51;7.80;99.90
24448;DHT22;13348;50.984;5.822;2024-03-17T06:52:18;7.90;99.90
24448;DHT22;13348;50.984;5.822;2024-03-17T06:54:46;8.00;99.90
24448;DHT22;13348;50.984;5.822;2024-03-17T06:57:15;7.90;99.90
24448;DHT22;13348;50.984;5.822;2024-03-17T06:59:43;7.90;99.90
24448;DHT22;13348;50.984;5.822;2024-03-17T07:02:11;7.90;99.90
24448;DHT22;13348;50.984;5.822;2024-03-17T07:04:41;8.00;99.90
24448;DHT22;13348;50.984;5.822;2024-03-17T07:07:08;8.00;99.90
24448;DHT22;13348;50.984;5.822;2024-03-17T07:09:35;8.10;99.90
24448;DHT22;13348;50.984;5.822;2024-03-17T07:12:02;8.30;99.90
24448;DHT22;13348;50.984;5.822;2024-03-17T07:14:29;8.40;99.90
24448;DHT22;13348;50.984;5.822;2024-03-17T07:16:58;8.50;99.90
24448;DHT22;13348;50.984;5.822;2024-03-17T07:19:25;8.60;99.90
24448;DHT22;13348;50.984;5.822;2024-03-17T07:21:52;8.60;99.90
24448;DHT22;13348;50.984;5.822;2024-03-17T07:24:20;8.60;99.90
24448;DHT22;13348;50.984;5.822;2024-03-17T07:26:47;8.70;99.90
24448;DHT22;13348;50.984;5.822;2024-03-17T07:29:14;8.80;99.90
24448;DHT22;13348;50.984;5.822;2024-03-17T07:31:41;8.90;99.90
24448;DHT22;13348;50.984;5.822;2024-03-17T07:34:10;9.00;99.90
24448;DHT22;13348;50.984;5.822;2024-03-17T07:36:36;9.00;99.90
24448;DHT22;13348;50.984;5.822;2024-03-17T07:39:04;9.10;99.90
24448;DHT22;13348;50.984;5.822;2024-03-17T07:41:32;9.20;99.90
24448;DHT22;13348;50.984;5.822;2024-03-17T07:43:59;9.30;99.90
24448;DHT22;13348;50.984;5.822;2024-03-17T07:46:26;9.50;99.90
24448;DHT22;13348;50.984;5.822;2024-03-17T07:48:53;9.50;99.90
24448;DHT22;13348;50.984;5.822;2024-03-17T07:51:22;9.60;99.90
24448;DHT22;13348;50.984;5.822;2024-03-17T07:53:49;9.70;99.90
24448;DHT22;13348;50.984;5.822;2024-03-17T07:56:17;9.80;99.90
24448;DHT22;13348;50.984;5.822;2024-03-17T07:58:44;9.90;99.90
24448;DHT22;13348;50.984;5.822;2024-03-17T08:01:13;9.90;99.90
24448;DHT22;13348;50.984;5.822;2024-03-17T08:03:41;10.10;99.90
24448;DHT22;13348;50.984;5.822;2024-03-17T08:06:09;10.10;99.90
24448;DHT22;13348;50.984;5.822;2024-03-17T08:08:38;10.20;99.90
24448;DHT22;13348;50.984;5.822;2024-03-17T08:11:08;10.40;99.90
24448;DHT22;13348;50.984;5.822;2024-03-17T08:13:35;10.50;99.90
24448;DHT22;13348;50.984;5.822;2024-03-17T08:16:03;10.50;99.90
24448;DHT22;13348;50.984;5.822;2024-03-17T08:18:31;10.50;99.90
24448;DHT22;13348;50.984;5.822;2024-03-17T08:20:59;10.50;99.90
24448;DHT22;13348;50.984;5.822;2024-03-17T08:23:26;10.50;99.90
24448;DHT22;13348;50.984;5.822;2024-03-17T08:25:54;10.60;99.90
24448;DHT22;13348;50.984;5.822;2024-03-17T08:28:21;10.80;99.90
24448;DHT22;13348;50.984;5.822;2024-03-17T08:30:52;11.00;99.90
24448;DHT22;13348;50.984;5.822;2024-03-17T08:33:19;11.20;99.90
24448;DHT22;13348;50.984;5.822;2024-03-17T08:35:53;11.40;99.90
24448;DHT22;13348;50.984;5.822;2024-03-17T08:38:21;11.60;99.90
24448;DHT22;13348;50.984;5.822;2024-03-17T08:40:48;11.90;99.90
24448;DHT22;13348;50.984;5.822;2024-03-17T08:43:17;12.00;99.90
24448;DHT22;13348;50.984;5.822;2024-03-17T08:45:44;12.00;99.90
24448;DHT22;13348;50.984;5.822;2024-03-17T08:48:11;12.30;99.90
24448;DHT22;13348;50.984;5.822;2024-03-17T08:50:38;12.40;99.90
24448;DHT22;13348;50.984;5.822;2024-03-17T08:53:05;12.30;99.90
24448;DHT22;13348;50.984;5.822;2024-03-17T08:55:32;12.20;99.90
24448;DHT22;13348;50.984;5.822;2024-03-17T08:57:59;12.20;99.90
24448;DHT22;13348;50.984;5.822;2024-03-17T09:00:27;12.40;99.90
24448;DHT22;13348;50.984;5.822;2024-03-17T09:02:55;12.30;99.90
24448;DHT22;13348;50.984;5.822;2024-03-17T09:05:22;12.30;99.90
24448;DHT22;13348;50.984;5.822;2024-03-17T09:07:49;12.30;99.90
24448;DHT22;13348;50.984;5.822;2024-03-17T09:10:16;12.20;99.90
24448;DHT22;13348;50.984;5.822;2024-03-17T09:12:43;12.10;99.90
24448;DHT22;13348;50.984;5.822;2024-03-17T09:15:12;12.10;99.90
24448;DHT22;13348;50.984;5.822;2024-03-17T09:17:41;12.20;99.90
24448;DHT22;13348;50.984;5.822;2024-03-17T09:20:10;12.40;99.90
24448;DHT22;13348;50.984;5.822;2024-03-17T09:22:37;12.60;99.90
24448;DHT22;13348;50.984;5.822;2024-03-17T09:25:05;12.70;99.90
24448;DHT22;13348;50.984;5.822;2024-03-17T09:27:32;13.00;99.90
24448;DHT22;13348;50.984;5.822;2024-03-17T09:30:00;13.10;99.90
24448;DHT22;13348;50.984;5.822;2024-03-17T09:32:26;13.10;99.90
24448;DHT22;13348;50.984;5.822;2024-03-17T09:34:55;13.10;99.90
24448;DHT22;13348;50.984;5.822;2024-03-17T09:37:21;13.20;99.90
24448;DHT22;13348;50.984;5.822;2024-03-17T09:39:49;13.10;99.90
24448;DHT22;13348;50.984;5.822;2024-03-17T09:42:17;13.20;99.90
24448;DHT22;13348;50.984;5.822;2024-03-17T09:44:45;13.10;99.90
24448;DHT22;13348;50.984;5.822;2024-03-17T09:47:14;13.20;99.90
24448;DHT22;13348;50.984;5.822;2024-03-17T09:49:42;13.10;99.90
24448;DHT22;13348;50.984;5.822;2024-03-17T09:52:13;13.30;99.90
24448;DHT22;13348;50.984;5.822;2024-03-17T09:54:42;13.60;99.90
24448;DHT22;13348;50.984;5.822;2024-03-17T09:57:13;13.80;99.90
24448;DHT22;13348;50.984;5.822;2024-03-17T09:59:41;13.90;99.90
24448;DHT22;13348;50.984;5.822;2024-03-17T10:02:08;14.00;99.90
24448;DHT22;13348;50.984;5.822;2024-03-17T10:04:41;14.20;99.90
24448;DHT22;13348;50.984;5.822;2024-03-17T10:07:08;14.00;99.90
24448;DHT22;13348;50.984;5.822;2024-03-17T10:09:36;13.90;99.90
24448;DHT22;13348;50.984;5.822;2024-03-17T10:12:04;13.80;99.90
24448;DHT22;13348;50.984;5.822;2024-03-17T10:14:33;13.60;99.90
24448;DHT22;13348;50.984;5.822;2024-03-17T10:17:00;13.70;99.90
24448;DHT22;13348;50.984;5.822;2024-03-17T10:19:27;13.70;99.90
24448;DHT22;13348;50.984;5.822;2024-03-17T10:21:58;13.40;99.90
24448;DHT22;13348;50.984;5.822;2024-03-17T10:24:26;13.40;99.90
24448;DHT22;13348;50.984;5.822;2024-03-17T10:26:56;13.40;99.90
24448;DHT22;13348;50.984;5.822;2024-03-17T10:29:23;13.20;99.90
24448;DHT22;13348;50.984;5.822;2024-03-17T10:31:51;13.40;99.90
24448;DHT22;13348;50.984;5.822;2024-03-17T10:34:19;13.40;99.90
24448;DHT22;13348;50.984;5.822;2024-03-17T10:36:46;13.50;99.90
24448;DHT22;13348;50.984;5.822;2024-03-17T10:39:23;13.50;99.90
24448;DHT22;13348;50.984;5.822;2024-03-17T10:41:59;13.50;99.90
24448;DHT22;13348;50.984;5.822;2024-03-17T10:44:27;13.80;99.90
24448;DHT22;13348;50.984;5.822;2024-03-17T10:46:55;14.10;99.90
24448;DHT22;13348;50.984;5.822;2024-03-17T10:49:23;14.20;99.90
24448;DHT22;13348;50.984;5.822;2024-03-17T10:51:51;14.20;99.90
24448;DHT22;13348;50.984;5.822;2024-03-17T10:54:24;14.50;99.90
24448;DHT22;13348;50.984;5.822;2024-03-17T10:56:54;14.50;99.90
24448;DHT22;13348;50.984;5.822;2024-03-17T10:59:23;14.50;99.90
24448;DHT22;13348;50.984;5.822;2024-03-17T11:01:55;14.50;99.90
24448;DHT22;13348;50.984;5.822;2024-03-17T11:04:22;14.50;99.90
24448;DHT22;13348;50.984;5.822;2024-03-17T11:06:49;14.50;99.90
24448;DHT22;13348;50.984;5.822;2024-03-17T11:09:16;14.80;99.90
24448;DHT22;13348;50.984;5.822;2024-03-17T11:11:43;15.00;99.90
24448;DHT22;13348;50.984;5.822;2024-03-17T11:14:16;15.00;99.90
24448;DHT22;13348;50.984;5.822;2024-03-17T11:16:46;14.80;99.90
24448;DHT22;13348;50.984;5.822;2024-03-17T11:19:14;14.80;99.90
24448;DHT22;13348;50.984;5.822;2024-03-17T11:21:41;14.50;99.90
24448;DHT22;13348;50.984;5.822;2024-03-17T11:24:21;14.70;99.90
24448;DHT22;13348;50.984;5.822;2024-03-17T11:26:48;14.60;99.90
24448;DHT22;13348;50.984;5.822;2024-03-17T11:29:28;14.70;99.90
24448;DHT22;13348;50.984;5.822;2024-03-17T11:31:55;14.80;99.90
24448;DHT22;13348;50.984;5.822;2024-03-17T11:34:25;14.70;99.90
24448;DHT22;13348;50.984;5.822;2024-03-17T11:36:51;14.60;99.90
24448;DHT22;13348;50.984;5.822;2024-03-17T11:39:19;14.60;99.90
24448;DHT22;13348;50.984;5.822;2024-03-17T11:41:48;14.60;99.90
24448;DHT22;13348;50.984;5.822;2024-03-17T11:44:16;14.50;99.90
24448;DHT22;13348;50.984;5.822;2024-03-17T11:46:50;14.60;99.90
24448;DHT22;13348;50.984;5.822;2024-03-17T11:49:19;14.60;99.90
24448;DHT22;13348;50.984;5.822;2024-03-17T11:51:46;14.60;99.90
24448;DHT22;13348;50.984;5.822;2024-03-17T11:54:14;14.60;99.90
24448;DHT22;13348;50.984;5.822;2024-03-17T11:56:43;14.40;99.90
24448;DHT22;13348;50.984;5.822;2024-03-17T11:59:11;14.30;99.90
24448;DHT22;13348;50.984;5.822;2024-03-17T12:01:37;14.20;99.90
24448;DHT22;13348;50.984;5.822;2024-03-17T12:04:05;14.30;99.90
24448;DHT22;13348;50.984;5.822;2024-03-17T12:06:33;14.50;99.90
24448;DHT22;13348;50.984;5.822;2024-03-17T12:09:09;14.40;99.90
24448;DHT22;13348;50.984;5.822;2024-03-17T12:11:36;14.30;99.90
24448;DHT22;13348;50.984;5.822;2024-03-17T12:14:13;14.40;99.90
24448;DHT22;13348;50.984;5.822;2024-03-17T12:16:46;14.40;99.90
24448;DHT22;13348;50.984;5.822;2024-03-17T12:19:13;14.50;99.90
24448;DHT22;13348;50.984;5.822;2024-03-17T12:21:43;14.70;99.90
24448;DHT22;13348;50.984;5.822;2024-03-17T12:24:11;14.50;99.90
24448;DHT22;13348;50.984;5.822;2024-03-17T12:26:39;14.50;99.90
24448;DHT22;13348;50.984;5.822;2024-03-17T12:32:02;14.70;99.90
24448;DHT22;13348;50.984;5.822;2024-03-17T12:34:31;14.80;99.90
24448;DHT22;13348;50.984;5.822;2024-03-17T12:36:58;14.70;99.90
24448;DHT22;13348;50.984;5.822;2024-03-17T12:39:25;14.70;99.90
24448;DHT22;13348;50.984;5.822;2024-03-17T12:42:04;14.70;99.90
24448;DHT22;13348;50.984;5.822;2024-03-17T12:44:31;14.70;99.90
24448;DHT22;13348;50.984;5.822;2024-03-17T12:46:58;14.80;99.90
24448;DHT22;13348;50.984;5.822;2024-03-17T12:49:28;14.90;99.90
24448;DHT22;13348;50.984;5.822;2024-03-17T12:51:54;14.90;99.90
24448;DHT22;13348;50.984;5.822;2024-03-17T12:54:22;15.00;99.90
24448;DHT22;13348;50.984;5.822;2024-03-17T12:56:48;15.10;99.90
24448;DHT22;13348;50.984;5.822;2024-03-17T12:59:36;15.50;99.90
24448;DHT22;13348;50.984;5.822;2024-03-17T13:02:21;15.90;99.90
24448;DHT22;13348;50.984;5.822;2024-03-17T13:07:34;16.90;99.90
24448;DHT22;13348;50.984;5.822;2024-03-17T13:10:01;16.70;99.90
24448;DHT22;13348;50.984;5.822;2024-03-17T13:12:29;16.60;99.90
24448;DHT22;13348;50.984;5.822;2024-03-17T13:14:56;16.80;99.90
24448;DHT22;13348;50.984;5.822;2024-03-17T13:17:23;16.90;99.90
24448;DHT22;13348;50.984;5.822;2024-03-17T13:19:50;17.40;99.90
24448;DHT22;13348;50.984;5.822;2024-03-17T13:22:17;18.40;99.90
24448;DHT22;13348;50.984;5.822;2024-03-17T13:24:45;19.40;99.90
24448;DHT22;13348;50.984;5.822;2024-03-17T13:27:12;20.00;99.90
24448;DHT22;13348;50.984;5.822;2024-03-17T13:29:40;19.90;99.90
24448;DHT22;13348;50.984;5.822;2024-03-17T13:32:09;19.90;99.90
24448;DHT22;13348;50.984;5.822;2024-03-17T13:34:36;19.70;99.90
24448;DHT22;13348;50.984;5.822;2024-03-17T13:37:03;19.90;99.90
24448;DHT22;13348;50.984;5.822;2024-03-17T13:39:30;19.30;99.90
24448;DHT22;13348;50.984;5.822;2024-03-17T13:42:00;17.70;99.90
24448;DHT22;13348;50.984;5.822;2024-03-17T13:44:28;16.90;99.90
24448;DHT22;13348;50.984;5.822;2024-03-17T13:46:56;17.10;99.90
24448;DHT22;13348;50.984;5.822;2024-03-17T13:49:23;17.10;99.90
24448;DHT22;13348;50.984;5.822;2024-03-17T13:51:50;17.10;99.90
24448;DHT22;13348;50.984;5.822;2024-03-17T13:54:17;16.70;99.90
24448;DHT22;13348;50.984;5.822;2024-03-17T13:56:46;16.60;99.90
24448;DHT22;13348;50.984;5.822;2024-03-17T13:59:14;16.70;99.90
24448;DHT22;13348;50.984;5.822;2024-03-17T14:01:41;16.80;99.90
24448;DHT22;13348;50.984;5.822;2024-03-17T14:04:11;16.50;99.90
24448;DHT22;13348;50.984;5.822;2024-03-17T14:06:39;16.50;99.90
24448;DHT22;13348;50.984;5.822;2024-03-17T14:09:06;17.00;99.90
24448;DHT22;13348;50.984;5.822;2024-03-17T14:11:35;17.10;99.90
24448;DHT22;13348;50.984;5.822;2024-03-17T14:14:01;17.00;99.90
24448;DHT22;13348;50.984;5.822;2024-03-17T14:16:31;16.60;99.90
24448;DHT22;13348;50.984;5.822;2024-03-17T14:18:59;16.30;99.90
24448;DHT22;13348;50.984;5.822;2024-03-17T14:21:26;16.40;99.90
24448;DHT22;13348;50.984;5.822;2024-03-17T14:23:53;16.30;99.90
24448;DHT22;13348;50.984;5.822;2024-03-17T14:26:20;16.20;99.90
24448;DHT22;13348;50.984;5.822;2024-03-17T14:28:47;16.20;99.90
24448;DHT22;13348;50.984;5.822;2024-03-17T14:31:15;16.20;99.90
24448;DHT22;13348;50.984;5.822;2024-03-17T14:33:44;16.40;99.90
24448;DHT22;13348;50.984;5.822;2024-03-17T14:36:11;16.60;99.90
24448;DHT22;13348;50.984;5.822;2024-03-17T14:38:36;16.90;99.90
24448;DHT22;13348;50.984;5.822;2024-03-17T14:41:06;16.70;99.90
24448;DHT22;13348;50.984;5.822;2024-03-17T14:43:34;16.40;99.90
24448;DHT22;13348;50.984;5.822;2024-03-17T14:46:04;16.60;99.90
24448;DHT22;13348;50.984;5.822;2024-03-17T14:48:33;16.80;99.90
24448;DHT22;13348;50.984;5.822;2024-03-17T14:51:02;16.90;99.90
24448;DHT22;13348;50.984;5.822;2024-03-17T14:53:29;16.70;99.90
24448;DHT22;13348;50.984;5.822;2024-03-17T14:55:56;16.50;99.90
24448;DHT22;13348;50.984;5.822;2024-03-17T14:58:23;16.30;99.90
24448;DHT22;13348;50.984;5.822;2024-03-17T15:00:50;16.00;99.90
24448;DHT22;13348;50.984;5.822;2024-03-17T15:03:18;15.80;99.90
24448;DHT22;13348;50.984;5.822;2024-03-17T15:05:45;15.70;99.90
24448;DHT22;13348;50.984;5.822;2024-03-17T15:08:13;15.70;99.90
24448;DHT22;13348;50.984;5.822;2024-03-17T15:10:40;15.70;99.90
24448;DHT22;13348;50.984;5.822;2024-03-17T15:13:07;15.70;99.90
24448;DHT22;13348;50.984;5.822;2024-03-17T15:15:35;15.70;99.90
24448;DHT22;13348;50.984;5.822;2024-03-17T15:18:02;15.80;99.90
24448;DHT22;13348;50.984;5.822;2024-03-17T15:20:29;16.00;99.90
24448;DHT22;13348;50.984;5.822;2024-03-17T15:22:56;16.00;99.90
24448;DHT22;13348;50.984;5.822;2024-03-17T15:25:24;16.00;99.90
24448;DHT22;13348;50.984;5.822;2024-03-17T15:27:51;15.90;99.90
24448;DHT22;13348;50.984;5.822;2024-03-17T15:30:18;15.90;99.90
24448;DHT22;13348;50.984;5.822;2024-03-17T15:32:46;15.70;99.90
24448;DHT22;13348;50.984;5.822;2024-03-17T15:35:14;15.60;99.90
24448;DHT22;13348;50.984;5.822;2024-03-17T15:37:41;15.50;99.90
24448;DHT22;13348;50.984;5.822;2024-03-17T15:40:08;15.50;99.90
24448;DHT22;13348;50.984;5.822;2024-03-17T15:42:43;15.40;99.90
24448;DHT22;13348;50.984;5.822;2024-03-17T15:45:11;15.40;99.90
24448;DHT22;13348;50.984;5.822;2024-03-17T15:47:38;15.30;99.90